Time;durP1;ratioP1;P1;durP2;ratioP2;P2;SDS_P1;SDS_P2;PMS_P1;PMS_P2;Temp;Humidity;BMP_temperature;BMP_pressure;BME280_temperature;BME280_humidity;BME280_pressure;Samples;Min_cycle;Max_cycle;Signal;HPM_P1;HPM_P2
2022/03/28 00:01:06;;;;;;;33.40;15.97;;;;;;;;;;5072046;28;20206;-59
2022/03/28 00:03:32;;;;;;;29.57;13.90;;;;;;;;;;5071451;28;20529;-58
2022/03/28 00:06:01;;;;;;;33.70;14.67;;;;;;;;;;5073992;28;20516;-57
2022/03/28 00:08:28;;;;;;;35.47;18.73;;;;;;;;;;5075896;28;20191;-57
2022/03/28 00:10:54;;;;;;;32.57;13.47;;;;;;;;;;5075941;28;20434;-57
2022/03/28 00:13:21;;;;;;;23.33;11.03;;;;;;;;;;5076350;28;20434;-56
2022/03/28 00:15:47;;;;;;;39.85;17.70;;;;;;;;;;5074612;28;20490;-56
2022/03/28 00:18:13;;;;;;;29.93;14.97;;;;;;;;;;5073934;28;20210;-55
2022/03/28 00:20:39;;;;;;;41.00;27.03;;;;;;;;;;5073283;28;20441;-58
2022/03/28 00:23:05;;;;;;;29.77;13.23;;;;;;;;;;5075595;28;20450;-56
2022/03/28 00:25:35;;;;;;;32.43;14.67;;;;;;;;;;5075397;28;20477;-58
2022/03/28 00:28:01;;;;;;;38.23;18.57;;;;;;;;;;5075378;28;20780;-60
2022/03/28 00:30:28;;;;;;;46.13;24.80;;;;;;;;;;5075524;28;20491;-56
2022/03/28 00:32:54;;;;;;;39.97;18.70;;;;;;;;;;5075348;28;20512;-57
2022/03/28 00:35:21;;;;;;;26.33;12.80;;;;;;;;;;5075397;28;20583;-57
2022/03/28 00:37:47;;;;;;;27.03;12.07;;;;;;;;;;5075313;28;20453;-57
2022/03/28 00:40:13;;;;;;;29.13;10.73;;;;;;;;;;5074960;28;20438;-55
2022/03/28 00:42:41;;;;;;;29.43;10.67;;;;;;;;;;5075167;28;20437;-56
2022/03/28 00:45:08;;;;;;;23.77;9.23;;;;;;;;;;5074729;28;20473;-56
2022/03/28 00:47:34;;;;;;;18.40;8.70;;;;;;;;;;5074813;28;20433;-56
2022/03/28 00:50:00;;;;;;;19.60;9.17;;;;;;;;;;5074783;28;20799;-57
2022/03/28 00:52:26;;;;;;;23.07;9.37;;;;;;;;;;5074966;28;20429;-56
2022/03/28 00:54:52;;;;;;;30.03;12.73;;;;;;;;;;5074897;28;20438;-57
2022/03/28 00:57:19;;;;;;;27.77;13.33;;;;;;;;;;5074583;28;20441;-57
2022/03/28 00:59:46;;;;;;;25.50;13.77;;;;;;;;;;5074949;28;20517;-55
2022/03/28 01:02:12;;;;;;;23.63;13.33;;;;;;;;;;5074861;28;20939;-56
2022/03/28 01:04:38;;;;;;;24.37;13.97;;;;;;;;;;5074786;28;20640;-56
2022/03/28 01:07:06;;;;;;;23.13;14.53;;;;;;;;;;5074240;28;20199;-55
2022/03/28 01:09:32;;;;;;;22.90;13.43;;;;;;;;;;5074543;28;20809;-58
2022/03/28 01:11:58;;;;;;;25.00;13.03;;;;;;;;;;5074327;28;20442;-56
2022/03/28 01:14:26;;;;;;;23.10;13.13;;;;;;;;;;5073828;28;20433;-56
2022/03/28 01:19:38;;;;;;;27.33;16.77;;;;;;;;;;5074370;28;20488;-56
2022/03/28 01:22:05;;;;;;;27.30;15.23;;;;;;;;;;5074118;28;20529;-56
2022/03/28 01:24:32;;;;;;;22.17;12.73;;;;;;;;;;5074116;28;20236;-58
2022/03/28 01:26:59;;;;;;;29.23;13.43;;;;;;;;;;5073873;28;20488;-56
2022/03/28 01:29:25;;;;;;;24.07;12.07;;;;;;;;;;5074285;28;20457;-57
2022/03/28 01:31:51;;;;;;;56.67;15.53;;;;;;;;;;5074058;28;20916;-56
2022/03/28 01:34:18;;;;;;;30.13;12.00;;;;;;;;;;5073790;28;20434;-56
2022/03/28 01:36:45;;;;;;;20.40;13.00;;;;;;;;;;5073981;28;20206;-56
2022/03/28 01:39:13;;;;;;;17.33;12.70;;;;;;;;;;5074053;28;20461;-56
2022/03/28 01:41:39;;;;;;;15.50;12.30;;;;;;;;;;5073999;28;20438;-56
2022/03/28 01:44:05;;;;;;;34.77;12.53;;;;;;;;;;5073690;28;20473;-56
2022/03/28 01:46:31;;;;;;;12.03;10.73;;;;;;;;;;5073852;28;20844;-57
2022/03/28 01:48:57;;;;;;;24.07;14.33;;;;;;;;;;5073741;28;20446;-56
2022/03/28 01:51:23;;;;;;;17.67;13.83;;;;;;;;;;5073609;28;20207;-55
2022/03/28 01:53:49;;;;;;;17.00;12.73;;;;;;;;;;5073539;28;20696;-56
2022/03/28 01:56:17;;;;;;;26.50;14.20;;;;;;;;;;5073606;28;20457;-56
2022/03/28 01:58:43;;;;;;;19.10;12.80;;;;;;;;;;5073497;28;20207;-56
2022/03/28 02:01:09;;;;;;;18.50;13.03;;;;;;;;;;5073346;28;20446;-56
2022/03/28 02:03:35;;;;;;;16.97;11.77;;;;;;;;;;5073476;28;20192;-56
2022/03/28 02:06:01;;;;;;;23.47;12.23;;;;;;;;;;5073271;28;20607;-56
2022/03/28 02:08:27;;;;;;;15.87;11.53;;;;;;;;;;5073285;28;20206;-56
2022/03/28 02:10:54;;;;;;;37.73;14.70;;;;;;;;;;5073130;28;20207;-56
2022/03/28 02:13:21;;;;;;;13.97;10.57;;;;;;;;;;5073040;28;20650;-56
2022/03/28 02:15:47;;;;;;;10.03;8.67;;;;;;;;;;5073272;28;20453;-57
2022/03/28 02:18:13;;;;;;;14.07;11.00;;;;;;;;;;5073114;28;20438;-57
2022/03/28 02:20:40;;;;;;;15.77;9.93;;;;;;;;;;5073212;28;20862;-56
2022/03/28 02:23:06;;;;;;;38.60;15.10;;;;;;;;;;5072478;28;20596;-57
2022/03/28 02:25:37;;;;;;;26.03;16.00;;;;;;;;;;5072657;28;20584;-57
2022/03/28 02:28:03;;;;;;;26.10;15.60;;;;;;;;;;5072547;28;20271;-56
2022/03/28 02:30:30;;;;;;;17.37;13.20;;;;;;;;;;5073181;28;20441;-57
2022/03/28 02:32:57;;;;;;;20.87;14.93;;;;;;;;;;5071906;28;20396;-57
2022/03/28 02:35:23;;;;;;;16.17;12.43;;;;;;;;;;5073036;28;20970;-55
2022/03/28 02:37:50;;;;;;;33.00;16.25;;;;;;;;;;5071394;28;20407;-58
2022/03/28 02:40:16;;;;;;;60.10;13.00;;;;;;;;;;5072956;28;20306;-55
2022/03/28 02:42:42;;;;;;;16.23;11.43;;;;;;;;;;5072752;28;20434;-57
2022/03/28 02:45:08;;;;;;;10.90;9.73;;;;;;;;;;5072585;28;20480;-57
2022/03/28 02:47:35;;;;;;;12.83;11.53;;;;;;;;;;5072899;28;20234;-57
2022/03/28 02:50:02;;;;;;;22.37;10.23;;;;;;;;;;5072655;28;20442;-57
2022/03/28 02:52:28;;;;;;;11.27;10.17;;;;;;;;;;5072791;28;20775;-57
2022/03/28 02:54:54;;;;;;;11.27;10.07;;;;;;;;;;5072405;28;20803;-56
2022/03/28 02:57:20;;;;;;;10.17;9.07;;;;;;;;;;5072281;28;20425;-58
2022/03/28 02:59:46;;;;;;;15.93;10.47;;;;;;;;;;5072319;28;20537;-56
2022/03/28 03:02:13;;;;;;;19.20;10.13;;;;;;;;;;5072312;28;20438;-55
2022/03/28 03:04:40;;;;;;;16.90;10.27;;;;;;;;;;5072069;28;20523;-56
2022/03/28 03:07:06;;;;;;;28.70;10.00;;;;;;;;;;5072297;28;20959;-57
2022/03/28 03:09:33;;;;;;;44.87;10.73;;;;;;;;;;5072351;28;20434;-56
2022/03/28 03:11:59;;;;;;;18.70;10.73;;;;;;;;;;5072151;28;20426;-57
2022/03/28 03:14:25;;;;;;;32.80;11.27;;;;;;;;;;5072163;28;20426;-57
2022/03/28 03:16:51;;;;;;;12.37;10.40;;;;;;;;;;5072092;28;20203;-56
2022/03/28 03:19:17;;;;;;;14.60;10.67;;;;;;;;;;5072059;28;20525;-57
2022/03/28 03:21:46;;;;;;;13.53;10.87;;;;;;;;;;5072171;28;20220;-56
2022/03/28 03:24:12;;;;;;;13.93;10.23;;;;;;;;;;5071721;28;20262;-57
2022/03/28 03:26:38;;;;;;;23.52;12.18;;;;;;;;;;5070611;28;20415;-57
2022/03/28 03:29:04;;;;;;;14.70;10.50;;;;;;;;;;5071932;28;20203;-56
2022/03/28 03:31:30;;;;;;;25.50;9.73;;;;;;;;;;5071972;28;20203;-57
2022/03/28 03:33:56;;;;;;;13.00;9.87;;;;;;;;;;5071687;28;20841;-56
2022/03/28 03:36:22;;;;;;;43.47;10.93;;;;;;;;;;5071974;28;20472;-57
2022/03/28 03:38:49;;;;;;;41.87;10.17;;;;;;;;;;5071103;28;20452;-57
2022/03/28 03:41:15;;;;;;;32.43;9.57;;;;;;;;;;5071672;28;20450;-56
2022/03/28 03:43:44;;;;;;;29.13;9.20;;;;;;;;;;5072130;28;20444;-56
2022/03/28 03:46:10;;;;;;;10.43;8.57;;;;;;;;;;5071753;28;20235;-56
2022/03/28 03:48:36;;;;;;;10.53;8.73;;;;;;;;;;5071954;28;20429;-56
2022/03/28 03:51:02;;;;;;;14.47;9.67;;;;;;;;;;5071614;28;20508;-56
2022/03/28 03:53:28;;;;;;;10.90;8.17;;;;;;;;;;5071822;28;20195;-55
2022/03/28 03:55:56;;;;;;;13.67;9.30;;;;;;;;;;5071643;28;20249;-56
2022/03/28 03:58:22;;;;;;;14.03;8.53;;;;;;;;;;5071521;28;20844;-56
2022/03/28 04:00:48;;;;;;;29.73;8.97;;;;;;;;;;5071661;28;20468;-56
2022/03/28 04:03:13;;;;;;;11.70;8.63;;;;;;;;;;5071590;28;20198;-56
2022/03/28 04:05:39;;;;;;;33.87;8.17;;;;;;;;;;5071545;28;20597;-57
2022/03/28 04:08:06;;;;;;;13.23;6.33;;;;;;;;;;5071482;28;20249;-57
2022/03/28 04:10:32;;;;;;;10.20;5.97;;;;;;;;;;5071187;28;20845;-54
2022/03/28 04:12:59;;;;;;;6.43;5.23;;;;;;;;;;5071168;28;20460;-58
2022/03/28 04:15:26;;;;;;;8.60;5.37;;;;;;;;;;5071509;28;20465;-56
2022/03/28 04:17:52;;;;;;;7.67;5.23;;;;;;;;;;5071227;28;20889;-56
2022/03/28 04:20:18;;;;;;;7.93;5.03;;;;;;;;;;5070748;28;20430;-55
2022/03/28 04:22:45;;;;;;;14.47;6.03;;;;;;;;;;5071163;28;20199;-55
2022/03/28 04:25:13;;;;;;;8.93;5.70;;;;;;;;;;5070747;28;20961;-55
2022/03/28 04:27:39;;;;;;;10.33;6.67;;;;;;;;;;5071201;28;20430;-55
2022/03/28 04:30:08;;;;;;;9.87;6.70;;;;;;;;;;5071243;28;20430;-55
2022/03/28 04:32:34;;;;;;;9.97;6.03;;;;;;;;;;5071253;28;20430;-56
2022/03/28 04:35:02;;;;;;;16.73;6.87;;;;;;;;;;5070929;28;20955;-55
2022/03/28 04:37:32;;;;;;;12.70;5.57;;;;;;;;;;5071235;28;20433;-55
2022/03/28 04:39:58;;;;;;;29.13;6.57;;;;;;;;;;5071301;28;20521;-56
2022/03/28 04:42:24;;;;;;;9.27;5.63;;;;;;;;;;5071127;28;20458;-56
2022/03/28 04:44:50;;;;;;;10.63;5.40;;;;;;;;;;5071114;28;20693;-56
2022/03/28 04:47:17;;;;;;;10.77;5.67;;;;;;;;;;5071092;28;20199;-56
2022/03/28 04:49:43;;;;;;;15.33;6.47;;;;;;;;;;5072121;28;20286;-56
2022/03/28 04:52:09;;;;;;;15.30;6.67;;;;;;;;;;5074740;28;20513;-56
2022/03/28 04:54:38;;;;;;;15.97;6.40;;;;;;;;;;5074717;28;20208;-57
2022/03/28 04:57:05;;;;;;;12.50;6.30;;;;;;;;;;5074642;28;20199;-56
2022/03/28 04:59:31;;;;;;;12.47;6.37;;;;;;;;;;5074874;28;20438;-56
2022/03/28 05:01:57;;;;;;;21.57;7.30;;;;;;;;;;5074743;28;20429;-56
2022/03/28 05:04:24;;;;;;;15.77;7.20;;;;;;;;;;5074698;28;20975;-57
2022/03/28 05:06:50;;;;;;;17.33;7.30;;;;;;;;;;5074481;28;20204;-56
2022/03/28 05:09:16;;;;;;;17.30;7.50;;;;;;;;;;5074377;28;20430;-56
2022/03/28 05:11:42;;;;;;;17.13;8.23;;;;;;;;;;5074522;28;20479;-56
2022/03/28 05:14:08;;;;;;;16.47;8.00;;;;;;;;;;5073889;28;20438;-56
2022/03/28 05:16:35;;;;;;;18.23;7.17;;;;;;;;;;5073733;28;20840;-56
2022/03/28 05:19:01;;;;;;;19.33;9.30;;;;;;;;;;5074422;28;20434;-56
2022/03/28 05:21:29;;;;;;;27.53;9.47;;;;;;;;;;5074587;28;20429;-56
2022/03/28 05:23:55;;;;;;;23.83;10.37;;;;;;;;;;5074154;28;20545;-57
2022/03/28 05:26:21;;;;;;;32.47;7.67;;;;;;;;;;5073839;28;20604;-55
2022/03/28 05:28:47;;;;;;;19.03;8.47;;;;;;;;;;5074265;28;20203;-56
2022/03/28 05:31:13;;;;;;;19.03;8.50;;;;;;;;;;5073723;28;20432;-56
2022/03/28 05:33:39;;;;;;;32.33;14.60;;;;;;;;;;5072675;28;20453;-56
2022/03/28 05:36:05;;;;;;;27.03;12.33;;;;;;;;;;5073910;28;20187;-56
2022/03/28 05:38:33;;;;;;;33.07;13.30;;;;;;;;;;5074075;28;20206;-56
2022/03/28 05:40:59;;;;;;;31.40;12.60;;;;;;;;;;5073906;28;20446;-56
2022/03/28 05:43:25;;;;;;;30.17;11.80;;;;;;;;;;5073887;28;20446;-56
2022/03/28 05:45:52;;;;;;;25.97;9.93;;;;;;;;;;5073799;28;20227;-56
2022/03/28 05:48:18;;;;;;;26.77;9.83;;;;;;;;;;5073733;28;20512;-56
2022/03/28 05:50:44;;;;;;;24.00;9.83;;;;;;;;;;5073800;28;20914;-57
2022/03/28 05:53:13;;;;;;;19.93;8.17;;;;;;;;;;5073677;28;20659;-56
2022/03/28 05:55:40;;;;;;;28.77;10.37;;;;;;;;;;5073016;28;20662;-56
2022/03/28 05:58:07;;;;;;;26.53;11.43;;;;;;;;;;5073480;28;20437;-56
2022/03/28 06:00:34;;;;;;;24.77;10.10;;;;;;;;;;5073337;28;20529;-56
2022/03/28 06:03:00;;;;;;;31.13;10.40;;;;;;;;;;5072874;28;20429;-56
2022/03/28 06:05:26;;;;;;;22.63;9.83;;;;;;;;;;5073466;28;20478;-56
2022/03/28 06:07:52;;;;;;;21.60;9.80;;;;;;;;;;5073329;28;20511;-56
2022/03/28 06:10:18;;;;;;;20.57;9.30;;;;;;;;;;5073341;28;20192;-57
2022/03/28 06:12:45;;;;;;;15.87;7.30;;;;;;;;;;5073338;28;20204;-56
2022/03/28 06:15:12;;;;;;;14.10;6.30;;;;;;;;;;5072926;28;20196;-56
2022/03/28 06:17:39;;;;;;;9.17;5.57;;;;;;;;;;5072947;28;20475;-57
2022/03/28 06:20:05;;;;;;;13.77;6.00;;;;;;;;;;5072749;28;20524;-56
2022/03/28 06:22:31;;;;;;;10.70;5.53;;;;;;;;;;5072870;28;20936;-56
2022/03/28 06:24:59;;;;;;;11.60;5.80;;;;;;;;;;5072543;28;20507;-58
2022/03/28 06:27:25;;;;;;;13.10;6.33;;;;;;;;;;5073129;28;20433;-56
2022/03/28 06:29:52;;;;;;;11.93;6.10;;;;;;;;;;5072559;28;20840;-55
2022/03/28 06:32:18;;;;;;;12.47;6.40;;;;;;;;;;5072664;28;20200;-55
2022/03/28 06:34:44;;;;;;;19.57;8.23;;;;;;;;;;5072829;28;20468;-56
2022/03/28 06:37:11;;;;;;;15.03;7.23;;;;;;;;;;5072042;28;20460;-56
2022/03/28 06:39:37;;;;;;;15.80;6.57;;;;;;;;;;5072305;28;20468;-56
2022/03/28 06:42:03;;;;;;;13.17;6.60;;;;;;;;;;5072275;28;20437;-56
2022/03/28 06:44:30;;;;;;;15.57;7.73;;;;;;;;;;5072189;28;20984;-56
2022/03/28 06:46:57;;;;;;;13.83;8.10;;;;;;;;;;5072289;28;20900;-56
2022/03/28 06:49:23;;;;;;;19.70;9.93;;;;;;;;;;5072451;28;20560;-56
2022/03/28 06:51:49;;;;;;;18.90;9.90;;;;;;;;;;5072477;28;20245;-56
2022/03/28 06:54:19;;;;;;;16.67;9.47;;;;;;;;;;5072227;28;20333;-56
2022/03/28 06:56:45;;;;;;;17.03;9.27;;;;;;;;;;5072472;28;20203;-56
2022/03/28 06:59:11;;;;;;;15.87;9.10;;;;;;;;;;5072232;28;20437;-56
2022/03/28 07:01:37;;;;;;;16.53;9.67;;;;;;;;;;5072585;28;20195;-57
2022/03/28 07:04:05;;;;;;;15.97;9.47;;;;;;;;;;5072517;28;20195;-58
2022/03/28 07:06:31;;;;;;;17.40;10.57;;;;;;;;;;5072630;28;20277;-58
2022/03/28 07:08:57;;;;;;;19.53;10.90;;;;;;;;;;5072549;28;20955;-58
2022/03/28 07:11:25;;;;;;;18.40;11.03;;;;;;;;;;5072395;28;20426;-55
2022/03/28 07:13:51;;;;;;;17.10;10.47;;;;;;;;;;5072520;28;20517;-57
2022/03/28 07:16:17;;;;;;;16.77;10.77;;;;;;;;;;5072333;28;20521;-57
2022/03/28 07:18:43;;;;;;;22.17;11.57;;;;;;;;;;5072584;28;20223;-57
2022/03/28 07:21:11;;;;;;;20.40;11.67;;;;;;;;;;5072107;28;20433;-58
2022/03/28 07:23:37;;;;;;;20.57;11.30;;;;;;;;;;5072261;28;20238;-57
2022/03/28 07:26:03;;;;;;;19.50;10.40;;;;;;;;;;5071877;28;20714;-57
2022/03/28 07:28:29;;;;;;;21.27;11.53;;;;;;;;;;5072283;28;20517;-55
2022/03/28 07:30:55;;;;;;;22.10;13.10;;;;;;;;;;5072265;28;20437;-58
2022/03/28 07:33:21;;;;;;;20.90;11.73;;;;;;;;;;5072163;28;20471;-57
2022/03/28 07:35:47;;;;;;;23.20;12.10;;;;;;;;;;5072364;28;20222;-57
2022/03/28 07:38:15;;;;;;;22.83;12.73;;;;;;;;;;5072203;28;20621;-57
2022/03/28 07:40:43;;;;;;;25.47;13.00;;;;;;;;;;5072259;28;20203;-56
2022/03/28 07:43:09;;;;;;;23.67;12.47;;;;;;;;;;5072168;28;20208;-57
2022/03/28 07:45:36;;;;;;;25.33;13.63;;;;;;;;;;5072248;28;21076;-57
2022/03/28 07:48:06;;;;;;;26.57;14.30;;;;;;;;;;5072005;28;20199;-57
2022/03/28 07:50:32;;;;;;;23.17;12.37;;;;;;;;;;5072199;28;20245;-56
2022/03/28 07:52:58;;;;;;;22.37;13.53;;;;;;;;;;5070414;28;20445;-59
2022/03/28 07:55:26;;;;;;;25.30;13.37;;;;;;;;;;5060928;28;20548;-58
2022/03/28 07:57:52;;;;;;;27.00;14.50;;;;;;;;;;5069161;28;20257;-57
2022/03/28 08:00:19;;;;;;;28.07;14.30;;;;;;;;;;5071471;28;20587;-59
2022/03/28 08:02:45;;;;;;;25.20;13.80;;;;;;;;;;5071916;28;20203;-59
2022/03/28 08:05:12;;;;;;;25.93;15.60;;;;;;;;;;5071680;28;20572;-60
2022/03/28 08:07:38;;;;;;;31.20;15.70;;;;;;;;;;5071804;28;20253;-59
2022/03/28 08:10:05;;;;;;;29.40;16.13;;;;;;;;;;5071665;28;20203;-60
2022/03/28 08:12:33;;;;;;;31.70;16.57;;;;;;;;;;5071858;28;20191;-58
2022/03/28 08:14:59;;;;;;;27.20;15.37;;;;;;;;;;5071267;28;20183;-58
2022/03/28 08:17:25;;;;;;;24.37;14.33;;;;;;;;;;5071552;28;20681;-59
2022/03/28 08:19:51;;;;;;;31.70;18.63;;;;;;;;;;5070388;28;20430;-59
2022/03/28 08:22:17;;;;;;;24.87;15.57;;;;;;;;;;5071604;28;20195;-59
2022/03/28 08:24:43;;;;;;;25.80;15.23;;;;;;;;;;5072141;28;20250;-58
2022/03/28 08:27:09;;;;;;;26.13;14.50;;;;;;;;;;5075289;28;20231;-59
2022/03/28 08:29:37;;;;;;;22.90;14.63;;;;;;;;;;5075416;28;20256;-59
2022/03/28 08:32:04;;;;;;;24.47;13.87;;;;;;;;;;5075097;28;20699;-59
2022/03/28 08:34:30;;;;;;;23.40;14.37;;;;;;;;;;5075510;28;20290;-59
2022/03/28 08:36:57;;;;;;;25.27;14.67;;;;;;;;;;5075471;28;20191;-59
2022/03/28 08:39:22;;;;;;;22.33;14.00;;;;;;;;;;5075254;28;20203;-59
2022/03/28 08:41:49;;;;;;;26.27;14.70;;;;;;;;;;5075005;28;20206;-60
2022/03/28 08:44:15;;;;;;;27.47;15.80;;;;;;;;;;5075139;28;20283;-59
2022/03/28 08:46:44;;;;;;;24.47;14.30;;;;;;;;;;5075025;28;20719;-59
2022/03/28 08:49:10;;;;;;;25.10;14.80;;;;;;;;;;5074966;28;20217;-60
2022/03/28 08:51:36;;;;;;;25.47;15.77;;;;;;;;;;5075172;28;20195;-59
2022/03/28 08:54:03;;;;;;;29.83;17.00;;;;;;;;;;5075052;28;20203;-59
2022/03/28 08:56:30;;;;;;;29.07;16.20;;;;;;;;;;5075139;28;20206;-62
2022/03/28 08:58:56;;;;;;;25.47;15.30;;;;;;;;;;5074988;28;20214;-60
2022/03/28 09:01:23;;;;;;;25.57;14.87;;;;;;;;;;5075066;28;20200;-58
2022/03/28 09:03:50;;;;;;;26.17;14.43;;;;;;;;;;5073239;28;20192;-60
2022/03/28 09:06:31;;;;;;;26.57;15.73;;;;;;;;;;5074422;28;20251;-60
2022/03/28 09:09:09;;;;;;;25.83;16.13;;;;;;;;;;5074611;28;20206;-59
2022/03/28 09:11:35;;;;;;;24.40;16.20;;;;;;;;;;5074632;28;20194;-58
2022/03/28 09:14:01;;;;;;;25.47;15.13;;;;;;;;;;5074684;28;20200;-59
2022/03/28 09:16:31;;;;;;;25.87;16.27;;;;;;;;;;5072970;28;20636;-59
2022/03/28 09:18:58;;;;;;;27.20;15.90;;;;;;;;;;5074671;28;20287;-59
2022/03/28 09:21:25;;;;;;;26.07;16.40;;;;;;;;;;5074310;28;20321;-60
2022/03/28 09:23:53;;;;;;;27.40;16.23;;;;;;;;;;5073107;28;20695;-60
2022/03/28 09:26:20;;;;;;;27.70;16.57;;;;;;;;;;5073650;28;20248;-60
2022/03/28 09:28:48;;;;;;;27.07;16.97;;;;;;;;;;5074412;28;20225;-61
2022/03/28 09:31:18;;;;;;;27.20;17.67;;;;;;;;;;5073859;28;20203;-61
2022/03/28 09:33:59;;;;;;;27.67;17.30;;;;;;;;;;5073744;28;20262;-60
2022/03/28 09:36:39;;;;;;;29.60;17.90;;;;;;;;;;5072896;28;20191;-60
2022/03/28 09:39:06;;;;;;;31.00;19.00;;;;;;;;;;5069950;28;20245;-60
2022/03/28 09:41:32;;;;;;;32.60;19.40;;;;;;;;;;5071961;28;20202;-59
2022/03/28 09:43:58;;;;;;;33.10;19.03;;;;;;;;;;5071976;28;20187;-59
2022/03/28 09:46:27;;;;;;;31.53;19.27;;;;;;;;;;5072746;28;20728;-60
2022/03/28 09:48:54;;;;;;;33.00;19.50;;;;;;;;;;5073506;28;20210;-59
2022/03/28 09:51:22;;;;;;;32.53;20.30;;;;;;;;;;5073642;28;20203;-59
2022/03/28 09:53:48;;;;;;;34.80;20.67;;;;;;;;;;5073856;28;20254;-59
2022/03/28 09:56:14;;;;;;;32.93;20.83;;;;;;;;;;5073642;28;20270;-61
2022/03/28 09:58:42;;;;;;;32.77;21.53;;;;;;;;;;5073774;28;20249;-59
2022/03/28 10:01:12;;;;;;;32.47;20.37;;;;;;;;;;5073235;28;20207;-60
2022/03/28 10:03:38;;;;;;;33.60;22.20;;;;;;;;;;5073522;28;20221;-59
2022/03/28 10:06:05;;;;;;;37.30;23.40;;;;;;;;;;5073177;28;20227;-57
2022/03/28 10:08:33;;;;;;;34.40;22.53;;;;;;;;;;5068334;28;20227;-58
2022/03/28 10:10:59;;;;;;;39.67;24.07;;;;;;;;;;5071479;28;20204;-59
2022/03/28 10:13:26;;;;;;;36.53;24.17;;;;;;;;;;5072694;28;20646;-57
2022/03/28 10:15:52;;;;;;;38.97;25.03;;;;;;;;;;5073576;28;20693;-58
2022/03/28 10:18:18;;;;;;;37.10;24.33;;;;;;;;;;5069753;28;20196;-58
2022/03/28 10:20:46;;;;;;;35.87;24.20;;;;;;;;;;5072610;28;20269;-59
2022/03/28 10:23:13;;;;;;;36.37;24.47;;;;;;;;;;5072308;28;20199;-57
2022/03/28 10:25:41;;;;;;;34.13;24.43;;;;;;;;;;5072563;28;20236;-58
2022/03/28 10:28:08;;;;;;;37.03;23.37;;;;;;;;;;5073046;28;20192;-58
2022/03/28 10:30:34;;;;;;;36.23;25.23;;;;;;;;;;5072864;28;20195;-58
2022/03/28 10:33:07;;;;;;;32.97;23.97;;;;;;;;;;5073039;28;20202;-58
2022/03/28 10:35:33;;;;;;;33.43;24.83;;;;;;;;;;5072752;28;20654;-58
2022/03/28 10:38:13;;;;;;;29.93;21.40;;;;;;;;;;5072870;28;20195;-58
2022/03/28 10:40:52;;;;;;;36.60;26.90;;;;;;;;;;5071079;28;20290;-59
2022/03/28 10:43:19;;;;;;;33.30;24.70;;;;;;;;;;5072139;28;20214;-60
2022/03/28 10:45:46;;;;;;;35.93;25.97;;;;;;;;;;5072827;28;20590;-58
2022/03/28 10:48:12;;;;;;;44.20;28.63;;;;;;;;;;5072305;28;20200;-58
2022/03/28 10:50:43;;;;;;;40.80;28.37;;;;;;;;;;5072695;28;20226;-58
2022/03/28 10:53:11;;;;;;;42.27;29.90;;;;;;;;;;5072465;28;20200;-59
2022/03/28 10:55:38;;;;;;;39.43;28.17;;;;;;;;;;5072677;28;20202;-58
2022/03/28 10:58:16;;;;;;;43.37;31.43;;;;;;;;;;5072338;28;20203;-58
2022/03/28 11:01:01;;;;;;;43.47;30.83;;;;;;;;;;5072703;28;20253;-58
2022/03/28 11:03:34;;;;;;;45.67;32.13;;;;;;;;;;5072413;28;20192;-58
2022/03/28 11:06:00;;;;;;;46.50;32.40;;;;;;;;;;5072226;28;20228;-58
2022/03/28 11:08:32;;;;;;;42.07;31.07;;;;;;;;;;5072579;28;20203;-58
2022/03/28 11:11:18;;;;;;;48.10;34.17;;;;;;;;;;5071834;28;20643;-58
2022/03/28 11:13:56;;;;;;;48.40;35.23;;;;;;;;;;5072388;28;20199;-58
2022/03/28 11:16:38;;;;;;;48.23;33.60;;;;;;;;;;5072238;28;20531;-59
2022/03/28 11:19:29;;;;;;;47.40;33.37;;;;;;;;;;5072176;28;20204;-58
2022/03/28 11:21:56;;;;;;;45.10;33.97;;;;;;;;;;5072560;28;20224;-58
2022/03/28 11:24:37;;;;;;;44.20;32.27;;;;;;;;;;5071941;28;20246;-59
2022/03/28 11:27:03;;;;;;;46.60;32.90;;;;;;;;;;5071904;28;20203;-58
2022/03/28 11:29:30;;;;;;;40.50;30.87;;;;;;;;;;5072236;28;20653;-59
2022/03/28 11:31:56;;;;;;;40.10;30.83;;;;;;;;;;5072280;28;20203;-57
2022/03/28 11:34:23;;;;;;;42.07;29.77;;;;;;;;;;5071877;28;20608;-57
2022/03/28 11:36:49;;;;;;;43.07;30.63;;;;;;;;;;5071974;28;20212;-58
2022/03/28 11:39:21;;;;;;;45.37;32.03;;;;;;;;;;5072028;28;20203;-61
2022/03/28 11:41:49;;;;;;;41.70;31.30;;;;;;;;;;5072357;28;20200;-57
2022/03/28 11:44:15;;;;;;;41.77;30.40;;;;;;;;;;5072047;28;20199;-57
2022/03/28 11:46:43;;;;;;;42.13;30.07;;;;;;;;;;5071987;28;20227;-58
2022/03/28 11:49:10;;;;;;;48.43;31.07;;;;;;;;;;5071667;28;20250;-60
2022/03/28 11:51:37;;;;;;;42.50;30.40;;;;;;;;;;5071682;28;20203;-57
2022/03/28 11:54:05;;;;;;;37.60;29.23;;;;;;;;;;5071458;28;20193;-57
2022/03/28 11:56:31;;;;;;;34.23;26.43;;;;;;;;;;5071789;28;20294;-57
2022/03/28 11:59:01;;;;;;;30.53;25.23;;;;;;;;;;5071181;28;20195;-57
2022/03/28 12:01:29;;;;;;;42.70;33.30;;;;;;;;;;5071701;28;20248;-57
2022/03/28 12:03:56;;;;;;;37.23;25.57;;;;;;;;;;5071692;28;20274;-58
2022/03/28 12:06:26;;;;;;;27.77;23.20;;;;;;;;;;5071564;28;20656;-58
2022/03/28 12:08:52;;;;;;;26.20;21.90;;;;;;;;;;5071460;28;20700;-57
2022/03/28 12:11:19;;;;;;;25.77;21.03;;;;;;;;;;5071531;28;20195;-58
2022/03/28 12:13:45;;;;;;;26.47;21.10;;;;;;;;;;5071816;28;20234;-57
2022/03/28 12:16:11;;;;;;;26.33;20.77;;;;;;;;;;5071387;28;20199;-58
2022/03/28 12:18:37;;;;;;;26.17;19.83;;;;;;;;;;5071036;28;20192;-56
2022/03/28 12:21:05;;;;;;;27.37;20.87;;;;;;;;;;5071209;28;20204;-57
2022/03/28 12:23:31;;;;;;;22.50;18.83;;;;;;;;;;5071356;28;20230;-56
2022/03/28 12:26:03;;;;;;;22.70;19.30;;;;;;;;;;5071081;28;20230;-57
2022/03/28 12:28:30;;;;;;;24.63;18.83;;;;;;;;;;5071264;28;20645;-57
2022/03/28 12:30:57;;;;;;;22.23;18.97;;;;;;;;;;5071198;28;20574;-56
2022/03/28 12:33:26;;;;;;;23.70;19.53;;;;;;;;;;5071056;28;20204;-57
2022/03/28 12:35:53;;;;;;;23.03;19.20;;;;;;;;;;5071065;28;20206;-57
2022/03/28 12:38:22;;;;;;;22.53;18.57;;;;;;;;;;5070759;28;20196;-56
2022/03/28 12:40:51;;;;;;;23.07;18.63;;;;;;;;;;5070819;28;20199;-57
2022/03/28 12:43:17;;;;;;;22.93;20.30;;;;;;;;;;5070391;28;20196;-56
2022/03/28 12:45:44;;;;;;;24.53;20.40;;;;;;;;;;5070526;28;20314;-57
2022/03/28 12:48:11;;;;;;;23.67;21.00;;;;;;;;;;5070429;28;20202;-57
2022/03/28 12:50:50;;;;;;;29.93;20.60;;;;;;;;;;5071320;28;20781;-57
2022/03/28 12:53:17;;;;;;;23.30;19.60;;;;;;;;;;5070945;28;20681;-57
2022/03/28 12:55:46;;;;;;;23.57;19.57;;;;;;;;;;5071087;28;20266;-57
2022/03/28 12:58:13;;;;;;;23.43;19.90;;;;;;;;;;5070926;28;20208;-57
2022/03/28 13:00:39;;;;;;;23.77;21.10;;;;;;;;;;5070338;28;20666;-58
2022/03/28 13:03:05;;;;;;;24.50;21.37;;;;;;;;;;5070881;28;20227;-56
2022/03/28 13:05:32;;;;;;;23.80;21.10;;;;;;;;;;5070933;28;20560;-57
2022/03/28 13:08:08;;;;;;;28.50;25.43;;;;;;;;;;5071249;28;20200;-57
2022/03/28 13:10:35;;;;;;;24.83;22.00;;;;;;;;;;5071925;28;20667;-56
2022/03/28 13:13:03;;;;;;;22.70;20.20;;;;;;;;;;5074491;28;20275;-56
2022/03/28 13:15:33;;;;;;;27.53;22.70;;;;;;;;;;5074498;28;20670;-56
2022/03/28 13:18:05;;;;;;;25.30;20.50;;;;;;;;;;5074524;28;20266;-57
2022/03/28 13:20:31;;;;;;;25.40;20.73;;;;;;;;;;5074674;28;20229;-57
2022/03/28 13:22:58;;;;;;;25.40;20.90;;;;;;;;;;5074448;28;20200;-57
2022/03/28 13:25:25;;;;;;;25.93;23.13;;;;;;;;;;5073901;28;20263;-57
2022/03/28 13:28:09;;;;;;;23.97;20.70;;;;;;;;;;5074506;28;20249;-57
2022/03/28 13:30:43;;;;;;;24.63;20.73;;;;;;;;;;5074390;28;20248;-57
2022/03/28 13:33:12;;;;;;;23.47;21.03;;;;;;;;;;5074183;28;20209;-58
2022/03/28 13:35:39;;;;;;;22.17;19.70;;;;;;;;;;5074297;28;20571;-57
2022/03/28 13:38:06;;;;;;;21.20;18.93;;;;;;;;;;5074005;28;20200;-58
2022/03/28 13:40:32;;;;;;;28.53;24.67;;;;;;;;;;5074057;28;20191;-58
2022/03/28 13:42:59;;;;;;;23.60;20.63;;;;;;;;;;5074148;28;20689;-57
2022/03/28 13:45:25;;;;;;;24.80;19.87;;;;;;;;;;5073554;28;20235;-57
2022/03/28 13:47:54;;;;;;;24.33;18.93;;;;;;;;;;5074081;28;20253;-58
2022/03/28 13:50:21;;;;;;;21.63;19.33;;;;;;;;;;5073631;28;20362;-58
2022/03/28 13:52:47;;;;;;;21.03;18.80;;;;;;;;;;5073876;28;20559;-57
2022/03/28 13:55:13;;;;;;;23.77;21.27;;;;;;;;;;5073906;28;20192;-58
2022/03/28 13:57:41;;;;;;;20.23;18.13;;;;;;;;;;5073961;28;20537;-57
2022/03/28 14:00:09;;;;;;;20.23;18.20;;;;;;;;;;5073725;28;20603;-58
2022/03/28 14:02:35;;;;;;;22.00;19.80;;;;;;;;;;5073998;28;20204;-57
2022/03/28 14:05:04;;;;;;;20.23;17.87;;;;;;;;;;5073668;28;20200;-58
2022/03/28 14:07:30;;;;;;;20.33;18.20;;;;;;;;;;5073915;28;20621;-58
2022/03/28 14:09:56;;;;;;;19.67;17.63;;;;;;;;;;5073637;28;20543;-57
2022/03/28 14:12:24;;;;;;;18.13;16.33;;;;;;;;;;5073491;28;20256;-58
2022/03/28 14:14:51;;;;;;;17.30;15.60;;;;;;;;;;5073808;28;20196;-57
2022/03/28 14:17:17;;;;;;;16.80;14.33;;;;;;;;;;5073576;28;20562;-57
2022/03/28 14:19:43;;;;;;;16.10;14.40;;;;;;;;;;5073888;28;20214;-58
2022/03/28 14:22:11;;;;;;;16.60;14.90;;;;;;;;;;5072784;28;20200;-58
2022/03/28 14:24:37;;;;;;;14.93;13.40;;;;;;;;;;5073340;28;20226;-58